Hermanville, MS (39086)

4:18 PM CDT on August 29, 2014 (GMT -0500)
Vicksburg Municipal | Change Station
CLOSE
Current Station
Airport
Location: Vicksburg Municipal,
Elevation: 105 ft
Nearby Weather Stations

Elev 105 ft 32.24 °N, 90.93 °W | Updated 23 minutes ago

Partly Cloudy
Partly Cloudy
91 °F
Feels Like 95 °F
N
9
Wind Variable Wind from SSE

Today
High -- | Low -- °F
--% Chance of Precip.
Yesterday
High -- | Low -- °F
Precip. -- in
6:36 AM 7:31 PM
Waxing Crescent, 16% visible
Pressure 29.92 in
Visibility 10.0 miles
Clouds Few 5000 ft
Few 6000 ft
Few 7000 ft
Heat Index 95 °F
Dew Point 68 °F
Humidity 46%
Rainfall 0.00 in
Snow Depth Not available.
UV 6 out of 12
Pollen 9.40 out of 12
Air Quality Not available.
Flu Activity Not available.
METAR KVKS 292055Z AUTO 16008KT 120V180 10SM FEW050 FEW060 FEW070 33/20 A2992 RMK A01

More Conditions Fewer Conditions

Pressure 29.92 in
Visibility 10.0 miles
Clouds Few 5000 ft
Few 6000 ft
Few 7000 ft
Heat Index 95 °F
Dew Point 68 °F
Humidity 46%
Rainfall 0.00 in
Snow Depth Not available.
UV 6 out of 12
Pollen 9.40 out of 12
Air Quality Not available.
Flu Activity Not available.
METAR KVKS 292055Z AUTO 16008KT 120V180 10SM FEW050 FEW060 FEW070 33/20 A2992 RMK A01

More Conditions Fewer Conditions

10-Day Weather Forecast

Almanac

Astronomy

Aug. 29, 2014 Rise Set
Actual Time 6:36 AM CDT 7:31 PM CDT
Civil Twilight 6:11 AM CDT 7:56 PM CDT
Nautical Twilight 5:42 AM CDT 8:25 PM CDT
Astronomical Twilight 5:11 AM CDT 8:55 PM CDT
Moon 10:10 AM CDT 9:46 PM CDT
Length of Visible Light 13h 44m
Length of Day
12h 54m
Tomorrow will be 1m 52s shorter.
Waxing Crescent, 16% of the Moon is Illuminated
Today
Waxing Crescent
Sep 2
First Quarter
Sep 8
Full
Sep 15
Last Quarter
Sep 24
New

Today's Extremes

State Highs State Lows

Community

WunderPhotos

Upload Photos

1,748,348 photos uploaded!

Nearby

Snow Depth

Station Depth Elevation
No new snow has been reported.

Earthquake Activity

City Distance Mag. Time & Date
No recent earthquake activity has been reported nearby.
Minimum magnitude displayed is 2.5.

Coastal Water Temperatures

Place Temperature
No Stations Reporting

Nearby Weather Stations